Time;durP1;ratioP1;P1;durP2;ratioP2;P2;SDS_P1;SDS_P2;PMS_P1;PMS_P2;Temp;Humidity;BMP_temperature;BMP_pressure;BME280_temperature;BME280_humidity;BME280_pressure;Samples;Min_cycle;Max_cycle;Signal;HPM_P1;HPM_P2
2022/05/04 00:01:31;;;;;;;13.87;11.63;;;15.70;72.40;;;;;;5106441;28;20479;-76
2022/05/04 00:03:59;;;;;;;14.97;12.83;;;15.70;72.30;;;;;;5105299;28;20492;-77
2022/05/04 00:06:27;;;;;;;14.70;12.00;;;15.70;72.30;;;;;;5107281;28;20480;-77
2022/05/04 00:08:55;;;;;;;15.20;12.20;;;15.60;72.40;;;;;;5106944;28;20487;-77
2022/05/04 00:11:24;;;;;;;14.03;11.70;;;15.60;72.40;;;;;;5107391;28;20456;-76
2022/05/04 00:13:52;;;;;;;13.93;12.53;;;15.60;72.40;;;;;;5107708;28;20468;-77
2022/05/04 00:16:20;;;;;;;14.57;11.70;;;15.60;72.40;;;;;;5104188;28;20487;-78
2022/05/04 00:18:48;;;;;;;13.53;11.33;;;15.50;72.60;;;;;;5107814;28;20490;-77
2022/05/04 00:21:16;;;;;;;14.40;11.27;;;15.50;72.70;;;;;;5105509;28;20448;-76
2022/05/04 00:23:44;;;;;;;14.50;10.67;;;15.50;72.70;;;;;;5088989;28;20453;-76
2022/05/04 00:26:12;;;;;;;12.00;9.33;;;15.50;72.80;;;;;;5106608;28;20480;-78
2022/05/04 00:28:41;;;;;;;13.00;9.27;;;15.50;72.70;;;;;;5107317;28;20479;-78
2022/05/04 00:31:09;;;;;;;13.20;10.00;;;15.40;72.60;;;;;;5105489;28;20472;-76
2022/05/04 00:33:37;;;;;;;16.10;8.73;;;15.40;72.70;;;;;;5089174;28;20466;-78
2022/05/04 00:36:05;;;;;;;11.63;9.10;;;15.30;72.70;;;;;;5107283;28;20447;-77
2022/05/04 00:38:33;;;;;;;10.77;8.23;;;15.20;72.60;;;;;;5107487;28;20487;-78
2022/05/04 00:41:01;;;;;;;13.70;9.20;;;15.10;72.60;;;;;;5106002;28;20452;-78
2022/05/04 00:43:30;;;;;;;12.33;8.93;;;15.10;72.70;;;;;;5107540;28;20472;-77
2022/05/04 00:45:59;;;;;;;13.10;9.03;;;15.00;72.70;;;;;;5107704;28;20476;-78
2022/05/04 00:48:27;;;;;;;11.70;9.10;;;15.00;72.80;;;;;;5107255;28;20820;-77
2022/05/04 00:50:56;;;;;;;12.23;9.67;;;15.00;73.00;;;;;;5106826;28;20941;-78
2022/05/04 00:53:24;;;;;;;14.20;8.90;;;15.00;73.00;;;;;;5103547;28;20457;-77
2022/05/04 00:55:54;;;;;;;10.43;8.20;;;15.00;73.00;;;;;;5087851;28;20462;-77
2022/05/04 01:01:09;;;;;;;11.20;8.50;;;15.00;73.00;;;;;;5088280;28;20457;-77
2022/05/04 01:03:37;;;;;;;12.47;8.77;;;15.00;73.20;;;;;;5107423;28;20505;-78
2022/05/04 01:06:05;;;;;;;13.07;9.73;;;15.00;73.20;;;;;;5089361;28;20481;-78
2022/05/04 01:08:33;;;;;;;12.27;9.13;;;15.00;73.30;;;;;;5105725;28;20832;-78
2022/05/04 01:11:01;;;;;;;12.57;9.80;;;15.00;73.30;;;;;;5106315;28;20460;-78
2022/05/04 01:13:29;;;;;;;11.77;9.17;;;15.00;73.40;;;;;;5106412;28;20453;-78
2022/05/04 01:15:57;;;;;;;13.50;9.00;;;15.00;73.40;;;;;;5104831;28;21270;-78
2022/05/04 01:18:27;;;;;;;13.30;9.23;;;15.10;73.40;;;;;;5107063;28;20454;-78
2022/05/04 01:20:54;;;;;;;10.90;8.67;;;15.00;73.40;;;;;;5106451;28;20456;-77
2022/05/04 01:23:26;;;;;;;16.10;9.30;;;15.10;73.50;;;;;;5076492;28;20491;-77
2022/05/04 01:25:54;;;;;;;13.43;9.53;;;15.10;73.50;;;;;;5104484;28;20472;-77
2022/05/04 01:28:22;;;;;;;11.93;8.70;;;15.10;73.50;;;;;;5103656;28;20456;-77
2022/05/04 01:30:50;;;;;;;11.40;8.70;;;15.10;73.50;;;;;;5106059;28;20468;-77
2022/05/04 01:33:18;;;;;;;12.37;9.80;;;15.10;73.50;;;;;;5106117;28;20952;-77
2022/05/04 01:35:45;;;;;;;12.70;9.17;;;15.00;73.50;;;;;;5106420;28;20464;-77
2022/05/04 01:38:13;;;;;;;12.13;8.07;;;15.00;73.50;;;;;;5106634;28;20459;-77
2022/05/04 01:40:43;;;;;;;13.20;10.10;;;15.00;73.60;;;;;;5106360;28;20475;-78
2022/05/04 01:43:11;;;;;;;11.90;8.90;;;15.00;73.60;;;;;;5103793;28;20830;-77
2022/05/04 01:45:38;;;;;;;12.03;9.70;;;15.00;73.70;;;;;;5105744;28;20460;-77
2022/05/04 01:48:07;;;;;;;12.27;9.80;;;15.10;73.70;;;;;;5086260;28;20461;-77
2022/05/04 01:50:35;;;;;;;12.87;10.00;;;15.10;73.70;;;;;;5105481;28;20504;-77
2022/05/04 01:53:03;;;;;;;12.07;8.80;;;15.00;73.70;;;;;;5092504;28;20458;-77
2022/05/04 01:55:33;;;;;;;16.67;9.77;;;15.00;73.70;;;;;;5089953;28;20456;-77
2022/05/04 01:58:03;;;;;;;11.60;9.20;;;15.00;73.70;;;;;;5110735;28;20456;-77
2022/05/04 02:00:32;;;;;;;11.00;9.33;;;15.00;73.80;;;;;;5109514;28;20521;-77
2022/05/04 02:03:01;;;;;;;11.70;8.77;;;15.00;73.80;;;;;;5110583;28;20460;-78
2022/05/04 02:05:29;;;;;;;13.03;10.10;;;14.90;73.80;;;;;;5110051;28;20953;-76
2022/05/04 02:07:57;;;;;;;11.63;9.47;;;14.90;74.00;;;;;;5110724;28;20484;-77
2022/05/04 02:10:25;;;;;;;12.47;9.83;;;15.00;74.00;;;;;;5109821;28;20491;-78
2022/05/04 02:12:53;;;;;;;13.70;10.13;;;15.00;74.00;;;;;;5110319;28;20576;-77
2022/05/04 02:15:22;;;;;;;13.23;9.57;;;15.00;74.00;;;;;;5109992;28;20451;-77
2022/05/04 02:17:50;;;;;;;13.23;9.40;;;15.00;74.00;;;;;;5108391;28;20953;-77
2022/05/04 02:20:18;;;;;;;13.70;9.90;;;15.00;74.10;;;;;;5108138;28;20538;-77
2022/05/04 02:22:46;;;;;;;11.40;9.60;;;15.00;74.10;;;;;;5087594;28;20446;-77
2022/05/04 02:25:14;;;;;;;14.07;9.83;;;15.10;74.10;;;;;;5089104;28;20449;-77
2022/05/04 02:27:42;;;;;;;13.60;9.73;;;15.10;74.10;;;;;;5110056;28;21012;-77
2022/05/04 02:30:13;;;;;;;12.07;9.83;;;15.10;74.10;;;;;;5108174;28;20475;-77
2022/05/04 02:32:42;;;;;;;13.50;9.43;;;15.10;74.10;;;;;;5110366;28;20448;-78
2022/05/04 02:37:57;;;;;;;13.37;9.57;;;15.00;74.10;;;;;;5108679;28;20497;-78
2022/05/04 02:40:26;;;;;;;12.90;9.90;;;15.00;74.20;;;;;;5106166;28;20495;-76
2022/05/04 02:42:54;;;;;;;11.40;9.70;;;15.00;74.30;;;;;;5109524;28;21011;-78
2022/05/04 02:45:22;;;;;;;13.90;10.10;;;15.00;74.30;;;;;;5108141;28;20449;-79
2022/05/04 02:47:52;;;;;;;12.47;9.10;;;15.00;74.30;;;;;;5107704;28;20484;-77
2022/05/04 02:50:20;;;;;;;12.23;9.40;;;15.00;74.40;;;;;;5109644;28;20494;-78
2022/05/04 02:52:48;;;;;;;12.77;8.90;;;15.00;74.40;;;;;;5111166;28;20463;-78
2022/05/04 02:55:16;;;;;;;10.73;8.60;;;15.00;74.40;;;;;;5108983;28;20484;-77
2022/05/04 02:57:45;;;;;;;11.53;9.63;;;15.00;74.40;;;;;;5106682;28;20444;-79
2022/05/04 03:00:13;;;;;;;13.60;10.30;;;14.90;74.40;;;;;;5107117;28;20491;-76
2022/05/04 03:02:41;;;;;;;14.43;10.50;;;14.90;74.50;;;;;;5088870;28;20453;-77
2022/05/04 03:05:14;;;;;;;13.50;9.47;;;14.90;74.50;;;;;;5109070;28;20463;-76
2022/05/04 03:07:42;;;;;;;11.77;9.17;;;14.90;74.50;;;;;;5110578;28;20561;-78
2022/05/04 03:10:11;;;;;;;11.43;9.10;;;14.90;74.60;;;;;;5107474;28;20474;-78
2022/05/04 03:12:38;;;;;;;13.00;10.17;;;14.90;74.60;;;;;;5109341;28;20471;-78
2022/05/04 03:15:08;;;;;;;12.77;10.17;;;14.90;74.70;;;;;;5109095;28;20924;-78
2022/05/04 03:17:36;;;;;;;14.23;10.90;;;14.80;74.70;;;;;;5109257;28;20450;-79
2022/05/04 03:20:06;;;;;;;13.73;9.43;;;14.80;74.70;;;;;;5109543;28;20504;-78
2022/05/04 03:22:35;;;;;;;12.90;10.13;;;14.80;74.80;;;;;;5109406;28;20457;-77
2022/05/04 03:25:07;;;;;;;12.07;9.97;;;14.80;74.80;;;;;;5110138;28;20449;-78
2022/05/04 03:27:35;;;;;;;15.93;11.27;;;14.80;74.90;;;;;;5089929;28;20589;-78
2022/05/04 03:30:04;;;;;;;16.60;11.00;;;14.80;74.90;;;;;;5091307;28;20485;-78
2022/05/04 03:32:33;;;;;;;15.10;10.87;;;14.80;75.00;;;;;;5108734;28;20471;-78
2022/05/04 03:35:01;;;;;;;13.50;10.63;;;14.80;75.00;;;;;;5109353;28;20452;-78
2022/05/04 03:37:29;;;;;;;12.80;9.93;;;14.80;75.00;;;;;;5108964;28;20444;-76
2022/05/04 03:39:58;;;;;;;17.70;10.30;;;14.80;75.10;;;;;;5091202;28;20883;-78
2022/05/04 03:42:26;;;;;;;13.03;10.40;;;14.80;75.10;;;;;;5110137;28;20452;-77
2022/05/04 03:44:56;;;;;;;13.10;10.00;;;14.80;75.10;;;;;;5109050;28;20827;-78
2022/05/04 03:47:23;;;;;;;14.37;10.73;;;14.80;75.10;;;;;;5108509;28;20472;-78
2022/05/04 03:49:51;;;;;;;18.60;12.10;;;14.80;75.20;;;;;;5110249;28;20903;-77
2022/05/04 03:52:21;;;;;;;13.37;10.97;;;14.80;75.20;;;;;;5106513;28;20456;-77
2022/05/04 03:54:49;;;;;;;14.13;11.30;;;14.70;75.10;;;;;;5108939;28;20448;-77
2022/05/04 03:57:18;;;;;;;14.33;11.80;;;14.70;75.40;;;;;;5108076;28;20440;-77
2022/05/04 03:59:46;;;;;;;16.40;11.77;;;14.60;75.50;;;;;;5106975;28;20474;-77
2022/05/04 04:02:14;;;;;;;13.20;10.40;;;14.70;75.50;;;;;;5098150;28;20461;-78
2022/05/04 04:04:43;;;;;;;13.30;10.47;;;14.70;75.60;;;;;;5108779;28;20829;-78
2022/05/04 04:07:10;;;;;;;17.43;12.73;;;14.70;75.60;;;;;;5107791;28;20984;-76
2022/05/04 04:09:38;;;;;;;13.90;10.90;;;14.70;75.60;;;;;;5106900;28;20476;-77
2022/05/04 04:12:08;;;;;;;13.00;9.80;;;14.70;75.70;;;;;;5108489;28;20949;-77
2022/05/04 04:14:37;;;;;;;17.13;12.43;;;14.70;75.60;;;;;;5082702;28;20857;-77
2022/05/04 04:17:05;;;;;;;15.60;11.77;;;14.70;75.60;;;;;;5105218;28;20474;-78
2022/05/04 04:19:33;;;;;;;16.40;12.07;;;14.70;75.70;;;;;;5108245;28;20468;-78
2022/05/04 04:22:01;;;;;;;14.50;10.30;;;14.60;75.70;;;;;;5106493;28;20941;-77
2022/05/04 04:24:29;;;;;;;13.60;11.50;;;14.60;75.90;;;;;;5108243;28;20535;-77
2022/05/04 04:26:57;;;;;;;15.37;11.03;;;14.60;76.00;;;;;;5107812;28;20452;-77
2022/05/04 04:29:25;;;;;;;14.63;11.57;;;14.60;76.10;;;;;;5107701;28;20487;-77
2022/05/04 04:31:54;;;;;;;14.40;10.93;;;14.60;76.20;;;;;;5107283;28;20475;-77
2022/05/04 04:34:22;;;;;;;14.87;11.53;;;14.60;76.10;;;;;;5105789;28;20464;-77
2022/05/04 04:36:50;;;;;;;14.50;11.13;;;14.60;76.20;;;;;;5087935;28;20460;-77
2022/05/04 04:39:18;;;;;;;17.00;12.33;;;14.60;76.20;;;;;;5105282;28;20484;-77
2022/05/04 04:41:46;;;;;;;13.30;10.53;;;14.60;76.30;;;;;;5103441;28;20476;-78
2022/05/04 04:44:14;;;;;;;14.53;11.83;;;14.60;76.40;;;;;;5092573;28;20808;-78
2022/05/04 04:46:42;;;;;;;17.03;11.90;;;14.70;76.40;;;;;;5107084;28;20472;-78
2022/05/04 04:49:11;;;;;;;16.27;11.60;;;14.70;76.30;;;;;;5088509;28;20574;-80
2022/05/04 04:51:39;;;;;;;23.63;14.70;;;14.70;76.30;;;;;;5106504;28;20464;-77
2022/05/04 04:54:07;;;;;;;19.90;13.53;;;14.70;76.30;;;;;;5101944;28;20957;-77
2022/05/04 04:56:35;;;;;;;18.17;13.87;;;14.70;76.50;;;;;;5105099;28;20455;-74
2022/05/04 04:59:03;;;;;;;16.40;12.07;;;14.60;76.50;;;;;;5105413;28;21079;-78
2022/05/04 05:01:31;;;;;;;16.30;12.67;;;14.60;76.90;;;;;;5104878;28;21016;-77
2022/05/04 05:03:59;;;;;;;16.00;12.87;;;14.50;76.90;;;;;;5087600;28;20452;-77
2022/05/04 05:06:30;;;;;;;16.23;13.00;;;14.40;76.80;;;;;;5105586;28;20460;-76
2022/05/04 05:08:58;;;;;;;19.00;12.50;;;14.40;76.90;;;;;;5106342;28;20490;-75
2022/05/04 05:11:26;;;;;;;15.77;12.63;;;14.30;77.10;;;;;;5092822;28;20470;-76
2022/05/04 05:16:39;;;;;;;18.83;13.27;;;14.30;77.50;;;;;;5103516;28;20480;-75
2022/05/04 05:19:07;;;;;;;16.83;13.37;;;14.30;77.60;;;;;;5107344;28;20501;-76
2022/05/04 05:21:37;;;;;;;18.67;14.00;;;14.40;77.60;;;;;;5107023;28;20458;-76
2022/05/04 05:24:06;;;;;;;16.80;14.13;;;14.40;77.70;;;;;;5093290;28;20452;-75
2022/05/04 05:26:33;;;;;;;19.83;14.70;;;14.50;77.80;;;;;;5108724;28;20448;-76
2022/05/04 05:29:01;;;;;;;18.30;12.97;;;14.50;77.90;;;;;;5108512;28;20488;-78
2022/05/04 05:31:34;;;;;;;16.77;13.60;;;14.60;78.10;;;;;;5111316;28;20465;-76
2022/05/04 05:34:02;;;;;;;21.00;14.40;;;14.70;78.10;;;;;;5111948;28;20558;-76
2022/05/04 05:36:30;;;;;;;18.63;13.43;;;14.80;78.00;;;;;;5091577;28;20448;-77
2022/05/04 05:39:00;;;;;;;21.77;14.07;;;14.80;78.00;;;;;;5109866;28;20566;-77
2022/05/04 05:41:28;;;;;;;17.27;13.87;;;14.90;77.90;;;;;;5110396;28;20555;-78
2022/05/04 05:43:56;;;;;;;17.53;13.20;;;15.00;78.00;;;;;;5110921;28;20501;-77
2022/05/04 05:46:24;;;;;;;17.63;13.07;;;15.00;77.90;;;;;;5110122;28;20556;-79
2022/05/04 05:48:52;;;;;;;20.77;13.67;;;15.10;78.10;;;;;;5111277;28;20904;-77
2022/05/04 05:51:20;;;;;;;19.33;14.37;;;15.30;78.30;;;;;;5110919;28;21080;-77
2022/05/04 05:53:48;;;;;;;16.67;12.90;;;15.50;78.00;;;;;;5091559;28;21439;-77
2022/05/04 05:56:17;;;;;;;20.40;15.70;;;15.60;77.70;;;;;;5093780;28;20535;-76
2022/05/04 05:58:46;;;;;;;17.97;14.60;;;15.70;77.40;;;;;;5109940;28;20471;-77
2022/05/04 06:01:14;;;;;;;21.83;15.20;;;15.60;77.10;;;;;;5108015;28;20479;-77
2022/05/04 06:03:42;;;;;;;17.60;14.30;;;15.60;77.00;;;;;;5111334;28;20462;-76
2022/05/04 06:06:10;;;;;;;17.50;12.60;;;15.50;77.00;;;;;;5111241;28;20432;-77
2022/05/04 06:08:46;;;;;;;23.77;13.23;;;15.50;76.90;;;;;;5111532;28;20506;-78
2022/05/04 06:11:14;;;;;;;24.30;14.27;;;15.50;77.10;;;;;;5097097;28;20954;-78
2022/05/04 06:13:43;;;;;;;20.20;14.40;;;15.50;77.20;;;;;;5088405;28;21033;-75
2022/05/04 06:16:11;;;;;;;19.67;13.80;;;15.60;77.10;;;;;;5107208;28;20503;-79
2022/05/04 06:18:39;;;;;;;17.83;14.03;;;15.60;77.10;;;;;;5110776;28;20450;-79
2022/05/04 06:21:07;;;;;;;18.97;14.37;;;15.70;77.10;;;;;;5110733;28;20464;-79
2022/05/04 06:23:35;;;;;;;21.40;13.80;;;15.70;77.00;;;;;;5111226;28;20467;-78
2022/05/04 06:26:03;;;;;;;18.90;14.17;;;15.80;76.90;;;;;;5111120;28;20448;-76
2022/05/04 06:28:31;;;;;;;19.83;13.90;;;15.90;76.60;;;;;;5105828;28;20464;-76
2022/05/04 06:36:32;;;;;;;19.90;14.53;;;15.90;76.00;;;;;;5108183;28;20458;-79
2022/05/04 06:39:00;;;;;;;17.10;14.47;;;16.00;76.10;;;;;;5108468;28;20602;-78
2022/05/04 06:41:28;;;;;;;17.70;13.70;;;16.00;76.10;;;;;;5110437;28;20444;-77
2022/05/04 06:43:56;;;;;;;19.10;14.23;;;16.10;76.00;;;;;;5110698;28;20456;-77
2022/05/04 06:46:25;;;;;;;18.67;14.23;;;16.20;75.90;;;;;;5091502;28;20468;-76
2022/05/04 06:48:53;;;;;;;20.80;15.47;;;16.30;75.80;;;;;;5101988;28;20545;-76
2022/05/04 06:51:21;;;;;;;21.47;15.70;;;16.30;75.70;;;;;;5110082;28;20462;-77
2022/05/04 06:53:49;;;;;;;17.70;14.17;;;16.40;75.60;;;;;;5110449;28;20460;-77
2022/05/04 06:56:37;;;;;;;18.73;13.10;;;16.50;75.50;;;;;;5110448;28;20456;-79
2022/05/04 06:59:05;;;;;;;16.17;13.13;;;16.50;75.30;;;;;;5110127;28;20468;-79
2022/05/04 07:01:34;;;;;;;16.63;12.87;;;16.60;75.20;;;;;;5109686;28;20829;-79
2022/05/04 07:04:02;;;;;;;18.60;13.93;;;16.70;75.10;;;;;;5099325;28;20463;-76
2022/05/04 07:06:30;;;;;;;18.77;14.37;;;16.80;75.10;;;;;;5109981;28;20451;-77
2022/05/04 07:08:58;;;;;;;14.83;12.10;;;16.90;74.90;;;;;;5110263;28;20484;-77
2022/05/04 07:11:26;;;;;;;22.13;13.97;;;17.00;74.70;;;;;;5109630;28;20459;-77
2022/05/04 07:13:54;;;;;;;16.30;12.37;;;17.00;74.70;;;;;;5104938;28;20452;-77
2022/05/04 07:16:22;;;;;;;17.40;13.67;;;17.10;74.60;;;;;;5104498;28;20483;-76
2022/05/04 07:18:51;;;;;;;18.53;12.57;;;17.10;74.50;;;;;;5108641;28;20559;-78
2022/05/04 07:21:25;;;;;;;16.10;12.80;;;17.10;74.30;;;;;;5091098;28;20468;-77
2022/05/04 07:23:53;;;;;;;18.57;13.47;;;17.10;74.20;;;;;;5104549;28;20455;-78
2022/05/04 07:26:21;;;;;;;17.90;14.17;;;17.00;73.90;;;;;;5109097;28;20452;-76
2022/05/04 07:28:49;;;;;;;16.00;12.47;;;17.00;74.20;;;;;;5109827;28;20480;-77
2022/05/04 07:31:17;;;;;;;15.67;12.57;;;17.00;74.20;;;;;;5109048;28;20456;-78
2022/05/04 07:33:45;;;;;;;17.93;12.80;;;17.00;74.30;;;;;;5109637;28;20487;-77
2022/05/04 07:36:14;;;;;;;21.67;14.17;;;17.10;74.30;;;;;;5107845;28;20448;-78
2022/05/04 07:38:42;;;;;;;18.23;12.90;;;17.10;74.30;;;;;;5109447;28;20476;-78
2022/05/04 07:43:56;;;;;;;18.00;13.40;;;17.30;74.30;;;;;;5088603;28;20459;-77
2022/05/04 07:46:24;;;;;;;19.60;13.60;;;17.40;74.30;;;;;;5106557;28;20469;-77
2022/05/04 07:48:52;;;;;;;17.50;14.17;;;17.50;74.20;;;;;;5091408;28;20473;-79
2022/05/04 07:51:21;;;;;;;17.17;12.40;;;17.50;74.10;;;;;;5090777;28;20984;-75
2022/05/04 07:53:49;;;;;;;18.00;13.13;;;17.60;74.00;;;;;;5103558;28;20445;-77
2022/05/04 07:56:17;;;;;;;15.83;12.80;;;17.60;73.70;;;;;;5109042;28;20449;-79
2022/05/04 07:58:45;;;;;;;17.13;12.87;;;17.70;73.70;;;;;;5109076;28;20468;-77
2022/05/04 08:04:17;;;;;;;16.10;12.80;;;17.70;73.70;;;;;;5105036;28;21193;-77
2022/05/04 08:06:46;;;;;;;15.23;12.80;;;17.80;73.60;;;;;;5107066;28;20451;-78
2022/05/04 08:09:15;;;;;;;17.23;12.60;;;17.80;73.50;;;;;;5090397;28;20476;-78
2022/05/04 08:11:43;;;;;;;16.23;12.47;;;17.80;73.50;;;;;;5108171;28;20452;-76
2022/05/04 08:14:12;;;;;;;14.27;11.37;;;17.80;73.60;;;;;;5108991;28;20440;-76
2022/05/04 08:16:40;;;;;;;17.00;13.43;;;17.80;73.60;;;;;;5103558;28;21031;-78
2022/05/04 08:19:09;;;;;;;18.23;13.77;;;17.80;73.60;;;;;;5108278;28;20460;-78
2022/05/04 08:21:38;;;;;;;19.53;13.77;;;17.90;73.50;;;;;;5089665;28;20444;-77
2022/05/04 08:24:08;;;;;;;17.70;13.40;;;17.90;73.60;;;;;;5109008;28;20444;-77
2022/05/04 08:26:42;;;;;;;16.20;12.40;;;17.90;73.50;;;;;;5105822;28;20451;-79
2022/05/04 08:29:10;;;;;;;18.80;14.30;;;17.90;73.60;;;;;;5105350;28;20496;-79
2022/05/04 08:31:39;;;;;;;18.27;14.17;;;18.00;73.60;;;;;;5104567;28;21214;-79
2022/05/04 08:34:07;;;;;;;16.30;12.47;;;18.00;73.60;;;;;;5090093;28;20444;-80
2022/05/04 08:36:37;;;;;;;16.80;11.93;;;18.00;73.70;;;;;;5108658;28;20452;-77
2022/05/04 08:39:08;;;;;;;18.80;14.93;;;18.10;73.70;;;;;;5108247;28;20533;-78
2022/05/04 08:41:39;;;;;;;17.30;14.17;;;18.10;73.60;;;;;;5105351;28;20455;-78
2022/05/04 08:44:09;;;;;;;17.13;14.00;;;18.10;73.70;;;;;;5109044;28;21246;-79
2022/05/04 08:46:39;;;;;;;17.77;14.33;;;18.10;73.60;;;;;;5108140;28;20482;-78
2022/05/04 08:49:07;;;;;;;16.60;13.60;;;18.10;73.50;;;;;;5107312;28;20483;-81
2022/05/04 08:51:37;;;;;;;16.27;12.80;;;18.10;73.50;;;;;;5082461;28;20841;-79
2022/05/04 08:54:08;;;;;;;19.07;13.33;;;18.10;73.60;;;;;;5106335;28;20456;-77
2022/05/04 08:56:36;;;;;;;16.80;12.77;;;18.10;73.60;;;;;;5109163;28;20456;-79
2022/05/04 08:59:05;;;;;;;15.63;12.67;;;18.20;73.70;;;;;;5112710;28;20483;-79
2022/05/04 09:01:34;;;;;;;19.80;14.00;;;18.20;73.70;;;;;;5111613;28;20474;-77
2022/05/04 09:04:02;;;;;;;16.40;13.30;;;18.20;73.70;;;;;;5112402;28;20944;-78
2022/05/04 09:06:32;;;;;;;15.60;12.00;;;18.30;73.70;;;;;;5112566;28;20459;-78
2022/05/04 09:09:03;;;;;;;17.73;12.37;;;18.30;73.70;;;;;;5105519;28;20475;-78
2022/05/04 09:11:36;;;;;;;17.13;13.60;;;18.40;73.60;;;;;;5112282;28;20472;-79
2022/05/04 09:14:08;;;;;;;18.80;13.30;;;18.30;73.40;;;;;;5107840;28;20450;-78
2022/05/04 09:16:36;;;;;;;16.67;13.97;;;18.40;73.40;;;;;;5111319;28;20476;-78
2022/05/04 09:19:06;;;;;;;17.03;12.43;;;18.40;73.30;;;;;;5112141;28;20560;-78
2022/05/04 09:21:35;;;;;;;15.93;11.40;;;18.40;73.30;;;;;;5104537;28;20527;-78
2022/05/04 09:24:04;;;;;;;14.03;10.80;;;18.40;73.30;;;;;;5088288;28;20456;-79
2022/05/04 09:26:38;;;;;;;15.00;10.80;;;18.40;73.30;;;;;;5110260;28;20459;-78
2022/05/04 09:29:06;;;;;;;13.87;11.17;;;18.50;73.30;;;;;;5111802;28;21197;-78
2022/05/04 09:31:34;;;;;;;14.97;11.37;;;18.50;73.20;;;;;;5107657;28;20483;-77
2022/05/04 09:34:04;;;;;;;15.77;12.10;;;18.50;73.00;;;;;;5108309;28;20456;-77
2022/05/04 09:36:37;;;;;;;16.47;10.77;;;18.50;73.00;;;;;;5111725;28;20452;-77
2022/05/04 09:45:11;;;;;;;14.47;10.87;;;18.60;72.70;;;;;;5074336;28;20460;-81
2022/05/04 09:47:40;;;;;;;14.00;10.57;;;18.60;72.60;;;;;;5112023;28;20452;-77
2022/05/04 09:50:10;;;;;;;12.57;10.00;;;18.60;72.40;;;;;;5091379;28;20477;-78
2022/05/04 09:52:43;;;;;;;14.80;10.93;;;18.60;72.50;;;;;;5111602;28;20452;-77
2022/05/04 09:55:16;;;;;;;13.87;10.70;;;18.70;72.50;;;;;;5110935;28;20483;-77
2022/05/04 09:57:46;;;;;;;12.93;10.03;;;18.70;72.50;;;;;;5104839;28;20450;-79
2022/05/04 10:00:17;;;;;;;12.93;10.87;;;18.70;72.60;;;;;;5109843;28;20475;-78
2022/05/04 10:02:46;;;;;;;11.87;9.50;;;18.80;72.60;;;;;;5106363;28;20441;-79
2022/05/04 10:05:16;;;;;;;12.10;9.07;;;18.80;72.50;;;;;;5098911;28;20942;-79
2022/05/04 10:07:44;;;;;;;11.63;8.67;;;18.90;72.30;;;;;;5108954;28;20521;-78
2022/05/04 10:10:14;;;;;;;11.13;8.40;;;18.90;72.10;;;;;;5108948;28;20574;-77
2022/05/04 10:12:45;;;;;;;10.37;7.67;;;18.90;72.00;;;;;;5110616;28;20936;-78
2022/05/04 10:15:15;;;;;;;9.20;6.37;;;18.90;71.80;;;;;;5110423;28;20451;-78
2022/05/04 10:17:49;;;;;;;10.57;7.43;;;18.90;71.30;;;;;;5109919;28;21070;-77
2022/05/04 10:20:20;;;;;;;11.93;7.70;;;19.00;71.10;;;;;;5108760;28;20547;-77
2022/05/04 10:22:54;;;;;;;10.73;7.60;;;19.00;70.90;;;;;;5111262;28;20432;-77
2022/05/04 10:25:24;;;;;;;10.67;8.03;;;19.00;70.40;;;;;;5109613;28;20454;-77
2022/05/04 10:28:06;;;;;;;9.50;6.97;;;19.00;69.90;;;;;;5107797;28;20444;-78
2022/05/04 10:30:34;;;;;;;9.23;6.73;;;18.90;69.80;;;;;;5109800;28;20483;-78
2022/05/04 10:33:05;;;;;;;11.47;6.87;;;18.90;70.10;;;;;;5110498;28;20476;-78
2022/05/04 10:35:36;;;;;;;11.33;7.07;;;19.00;69.90;;;;;;5108103;28;20448;-78
2022/05/04 10:38:11;;;;;;;9.80;6.30;;;19.00;69.80;;;;;;5107281;28;20464;-80
2022/05/04 10:40:43;;;;;;;8.53;6.53;;;19.00;69.60;;;;;;5108068;28;20484;-78
2022/05/04 10:43:16;;;;;;;10.53;6.20;;;19.00;69.50;;;;;;5109336;28;20449;-77
2022/05/04 10:45:45;;;;;;;8.80;5.93;;;19.00;69.30;;;;;;5110210;28;20468;-78
2022/05/04 10:48:25;;;;;;;10.30;7.43;;;19.10;69.10;;;;;;5110734;28;20463;-78
2022/05/04 10:50:57;;;;;;;9.27;7.00;;;19.10;69.20;;;;;;5110475;28;20471;-78
2022/05/04 10:53:46;;;;;;;10.33;7.13;;;19.10;69.10;;;;;;5108257;28;20497;-78
2022/05/04 10:56:16;;;;;;;10.93;7.53;;;19.20;69.10;;;;;;5108200;28;20458;-77
2022/05/04 10:58:55;;;;;;;8.40;6.67;;;19.20;69.10;;;;;;5108885;28;20440;-77
2022/05/04 11:01:25;;;;;;;10.27;7.20;;;19.20;69.00;;;;;;5090900;28;20468;-77
2022/05/04 11:03:57;;;;;;;9.50;7.10;;;19.20;68.90;;;;;;5106888;28;20456;-78
2022/05/04 11:06:30;;;;;;;10.30;7.80;;;19.30;68.90;;;;;;5098784;28;20464;-78
2022/05/04 11:09:04;;;;;;;8.67;6.30;;;19.30;68.90;;;;;;5108608;28;20482;-78
2022/05/04 11:11:34;;;;;;;8.80;7.03;;;19.20;68.90;;;;;;5109038;28;21437;-78
2022/05/04 11:14:04;;;;;;;8.70;6.47;;;19.20;68.90;;;;;;5111049;28;20453;-77
2022/05/04 11:16:32;;;;;;;10.03;7.77;;;19.20;69.00;;;;;;5105206;28;20468;-76
2022/05/04 11:19:01;;;;;;;9.30;7.43;;;19.20;68.90;;;;;;5101081;28;20480;-77
2022/05/04 11:21:30;;;;;;;11.53;8.13;;;19.20;69.00;;;;;;5106419;27;20466;-78
2022/05/04 11:24:00;;;;;;;9.37;6.83;;;19.10;69.00;;;;;;5106361;27;20452;-77
2022/05/04 11:26:35;;;;;;;10.67;8.10;;;19.10;69.10;;;;;;5105153;28;20448;-77
2022/05/04 11:29:08;;;;;;;11.00;6.90;;;19.10;69.10;;;;;;5106590;28;20475;-77
2022/05/04 11:31:36;;;;;;;9.10;6.43;;;19.00;69.20;;;;;;5104962;28;20850;-75
2022/05/04 11:34:04;;;;;;;11.40;7.50;;;19.00;69.10;;;;;;5106373;28;20814;-77
2022/05/04 11:36:32;;;;;;;9.50;7.10;;;18.90;69.10;;;;;;5106912;28;20452;-76
2022/05/04 11:39:03;;;;;;;11.90;8.30;;;18.90;69.20;;;;;;5091638;28;21016;-78
2022/05/04 11:41:31;;;;;;;9.30;7.50;;;18.80;69.40;;;;;;5106688;28;20457;-76
2022/05/04 11:43:59;;;;;;;13.63;9.70;;;18.70;69.50;;;;;;5108201;28;20460;-77
2022/05/04 11:46:28;;;;;;;10.83;7.40;;;18.60;69.70;;;;;;5107059;28;20487;-77
2022/05/04 11:48:58;;;;;;;9.67;6.10;;;18.50;69.80;;;;;;5107456;28;20499;-76
2022/05/04 11:51:30;;;;;;;11.43;6.60;;;18.40;70.00;;;;;;5106479;28;20472;-77
2022/05/04 11:53:58;;;;;;;9.03;6.37;;;18.30;70.40;;;;;;5106906;28;20448;-76
2022/05/04 11:56:26;;;;;;;10.33;7.60;;;18.20;70.70;;;;;;5105355;28;20455;-76
2022/05/04 11:58:54;;;;;;;10.17;7.00;;;18.10;70.70;;;;;;5106588;28;20487;-77
2022/05/04 12:01:23;;;;;;;10.97;7.33;;;18.10;71.00;;;;;;5105743;28;20469;-77
2022/05/04 12:03:53;;;;;;;12.80;7.77;;;18.00;71.10;;;;;;5108009;28;20459;-77
2022/05/04 12:06:21;;;;;;;11.80;8.80;;;18.00;71.50;;;;;;5106748;28;20803;-76
2022/05/04 12:08:50;;;;;;;11.83;9.30;;;18.00;71.90;;;;;;5102803;28;20484;-76
2022/05/04 12:11:19;;;;;;;10.37;8.37;;;18.00;72.40;;;;;;5106191;28;20476;-76
2022/05/04 12:13:48;;;;;;;12.30;9.20;;;18.00;72.70;;;;;;5107724;28;20448;-77
2022/05/04 12:16:17;;;;;;;11.60;9.33;;;18.10;73.10;;;;;;5106529;28;20825;-77
2022/05/04 12:18:47;;;;;;;12.63;9.80;;;18.20;73.50;;;;;;5087961;28;20540;-76
2022/05/04 12:21:19;;;;;;;13.20;10.57;;;18.40;73.90;;;;;;5106071;28;20448;-79
2022/05/04 12:23:50;;;;;;;13.30;10.27;;;18.50;74.30;;;;;;5097122;28;20460;-77
2022/05/04 12:26:19;;;;;;;15.90;9.93;;;18.60;74.40;;;;;;5108065;28;20440;-77
2022/05/04 12:34:26;;;;;;;12.53;9.10;;;18.80;74.80;;;;;;5109454;28;21228;-79
2022/05/04 12:36:59;;;;;;;11.17;8.47;;;18.90;74.60;;;;;;5109599;28;20452;-78
2022/05/04 12:39:28;;;;;;;9.80;7.63;;;19.00;74.60;;;;;;5088021;28;20476;-79
2022/05/04 12:41:58;;;;;;;11.10;8.63;;;19.00;74.30;;;;;;5109803;28;20449;-79
2022/05/04 12:44:27;;;;;;;11.87;7.90;;;19.00;74.00;;;;;;5109374;28;20456;-79
2022/05/04 12:46:57;;;;;;;9.07;6.93;;;19.00;73.90;;;;;;5111688;28;21000;-79
2022/05/04 12:49:26;;;;;;;8.97;6.30;;;18.90;73.90;;;;;;5090996;28;20484;-78
2022/05/04 12:51:56;;;;;;;8.43;5.57;;;18.90;73.50;;;;;;5108134;28;20476;-79
2022/05/04 12:54:25;;;;;;;8.10;5.77;;;18.90;73.40;;;;;;5104275;28;20939;-80
2022/05/04 12:56:54;;;;;;;7.57;5.60;;;18.90;73.10;;;;;;5105345;28;20440;-79
2022/05/04 12:59:22;;;;;;;7.87;5.90;;;18.90;73.00;;;;;;5105982;28;20480;-78
2022/05/04 13:01:51;;;;;;;9.40;6.20;;;19.00;72.40;;;;;;5102948;28;20472;-79
2022/05/04 13:04:19;;;;;;;9.07;6.33;;;19.00;72.50;;;;;;5086342;28;20937;-79
2022/05/04 13:06:47;;;;;;;9.10;6.70;;;18.90;72.30;;;;;;5085037;28;20448;-80
2022/05/04 13:09:15;;;;;;;8.50;6.67;;;19.00;72.30;;;;;;5103272;28;20841;-81
2022/05/04 13:11:45;;;;;;;9.83;7.17;;;19.00;72.30;;;;;;5111046;28;20455;-80
2022/05/04 13:14:13;;;;;;;10.27;7.87;;;19.10;72.10;;;;;;5104502;28;20460;-85